createdAt,value
2019-05-01T00:01:22.786Z,99781.34
2019-05-01T00:04:50.010Z,99784.58
2019-05-01T00:07:55.230Z,99790.67
2019-05-01T00:11:00.379Z,99784.64
2019-05-01T00:14:06.132Z,99774.80
2019-05-01T00:17:12.206Z,99775.06
2019-05-01T00:20:17.723Z,99774.99
2019-05-01T00:23:22.947Z,99769.56
2019-05-01T00:26:28.111Z,99770.56
2019-05-01T00:29:33.349Z,99771.00
2019-05-01T00:32:38.474Z,99770.28
2019-05-01T00:35:43.737Z,99763.73
2019-05-01T00:38:49.889Z,99763.31
2019-05-01T00:41:55.107Z,99763.33
2019-05-01T00:45:00.244Z,99762.13
2019-05-01T00:48:05.433Z,99754.76
2019-05-01T00:51:10.619Z,99752.77
2019-05-01T00:54:15.877Z,99756.73
2019-05-01T00:57:30.482Z,99748.25
2019-05-01T01:01:09.869Z,99744.41
2019-05-01T01:04:17.669Z,99745.17
2019-05-01T01:07:22.853Z,99749.04
2019-05-01T01:10:28.042Z,99740.71
2019-05-01T01:13:33.293Z,99742.02
2019-05-01T01:16:38.523Z,99745.53
2019-05-01T01:19:43.818Z,99738.88
2019-05-01T01:22:49.063Z,99735.74
2019-05-01T01:25:54.469Z,99733.07
2019-05-01T01:28:59.586Z,99729.08
2019-05-01T01:32:04.957Z,99733.14
2019-05-01T01:35:10.262Z,99736.27
2019-05-01T01:38:15.552Z,99735.28
2019-05-01T01:41:20.816Z,99736.41
2019-05-01T01:44:51.243Z,99735.73
2019-05-01T01:48:11.328Z,99730.76
2019-05-01T01:51:16.738Z,99734.77
2019-05-01T01:54:21.889Z,99731.08
2019-05-01T01:57:27.335Z,99728.96
2019-05-01T02:00:43.818Z,99730.83
2019-05-01T02:03:53.150Z,99726.44
2019-05-01T02:06:59.540Z,99726.92
2019-05-01T02:10:06.247Z,99720.69
2019-05-01T02:13:11.714Z,99725.42
2019-05-01T02:16:16.879Z,99721.64
2019-05-01T02:19:22.078Z,99717.49
2019-05-01T02:22:27.305Z,99717.17
2019-05-01T02:25:34.110Z,99716.20
2019-05-01T02:29:01.312Z,99710.87
2019-05-01T02:32:07.067Z,99709.68
2019-05-01T02:35:12.439Z,99711.16
2019-05-01T02:38:18.521Z,99711.84
2019-05-01T02:41:25.747Z,99708.21
2019-05-01T02:44:44.781Z,99705.08
2019-05-01T02:47:50.493Z,99708.33
2019-05-01T02:50:59.407Z,99705.29
2019-05-01T02:54:04.887Z,99702.60
2019-05-01T02:57:13.673Z,99695.22
2019-05-01T03:00:18.792Z,99699.02
2019-05-01T03:03:23.926Z,99688.77
2019-05-01T03:06:31.877Z,99684.80
2019-05-01T03:09:38.879Z,99689.47
2019-05-01T03:12:47.065Z,99689.84
2019-05-01T03:15:52.841Z,99692.89
2019-05-01T03:19:00.621Z,99689.66
2019-05-01T03:22:11.835Z,99688.63
2019-05-01T03:25:17.074Z,99689.70
2019-05-01T03:28:22.966Z,99686.59
2019-05-01T03:31:28.238Z,99682.44
2019-05-01T03:34:33.914Z,99680.30
2019-05-01T03:37:39.127Z,99681.33
2019-05-01T03:40:44.628Z,99679.23
2019-05-01T03:43:50.721Z,99685.75
2019-05-01T03:46:55.907Z,99680.45
2019-05-01T03:50:01.319Z,99680.87
2019-05-01T03:53:06.644Z,99675.39
2019-05-01T03:56:12.173Z,99680.32
2019-05-01T03:59:18.005Z,99673.87
2019-05-01T04:02:45.894Z,99672.84
2019-05-01T04:05:51.224Z,99672.11
2019-05-01T04:08:56.538Z,99674.11
2019-05-01T04:12:02.245Z,99671.59
2019-05-01T04:15:07.773Z,99676.77
2019-05-01T04:18:13.159Z,99675.44
2019-05-01T04:21:21.462Z,99674.19
2019-05-01T04:24:27.061Z,99675.89
2019-05-01T04:27:34.877Z,99677.17
2019-05-01T04:31:05.570Z,99672.46
2019-05-01T04:34:21.635Z,99667.44
2019-05-01T04:37:26.786Z,99677.44
2019-05-01T04:40:31.930Z,99679.75
2019-05-01T04:43:37.213Z,99677.38
2019-05-01T04:46:42.464Z,99682.60
2019-05-01T04:49:47.795Z,99685.55
2019-05-01T04:52:53.334Z,99682.92
2019-05-01T04:55:58.951Z,99687.88
2019-05-01T04:59:04.477Z,99688.61
2019-05-01T05:02:11.939Z,99687.13
2019-05-01T05:05:17.945Z,99695.20
2019-05-01T05:08:23.229Z,99693.84
2019-05-01T05:11:31.364Z,99692.92
2019-05-01T05:14:38.251Z,99692.72
2019-05-01T05:17:43.433Z,99692.64
2019-05-01T05:20:49.695Z,99692.57
2019-05-01T05:23:55.218Z,99690.36
2019-05-01T05:27:00.721Z,99692.64
2019-05-01T05:30:06.187Z,99697.66
2019-05-01T05:33:18.625Z,99694.03
2019-05-01T05:36:20.071Z,99699.52
2019-05-01T05:39:41.916Z,99707.88
2019-05-01T05:42:47.182Z,99707.19
2019-05-01T05:45:52.490Z,99709.77
2019-05-01T05:48:57.983Z,99702.60
2019-05-01T05:52:21.553Z,99711.16
2019-05-01T05:55:36.565Z,99701.94
2019-05-01T05:58:48.958Z,99704.32
2019-05-01T06:02:14.644Z,99698.05
2019-05-01T06:05:48.103Z,99707.50
2019-05-01T06:08:56.182Z,99697.05
2019-05-01T06:12:15.652Z,99705.13
2019-05-01T06:15:28.283Z,99701.59
2019-05-01T06:18:48.794Z,99700.52
2019-05-01T06:22:24.271Z,99697.73
2019-05-01T06:25:34.495Z,99706.22
2019-05-01T06:28:39.620Z,99694.45
2019-05-01T06:31:45.201Z,99690.34
2019-05-01T06:34:50.471Z,99686.45
2019-05-01T06:38:02.250Z,99678.11
2019-05-01T06:41:07.633Z,99689.11
2019-05-01T06:44:33.547Z,99684.77
2019-05-01T06:47:58.338Z,99682.69
2019-05-01T06:51:28.736Z,99680.31
2019-05-01T06:54:35.839Z,99680.27
2019-05-01T06:57:43.968Z,99671.17
2019-05-01T07:00:49.831Z,99671.41
2019-05-01T07:04:03.613Z,99675.02
2019-05-01T07:07:06.945Z,99673.05
2019-05-01T07:10:12.324Z,99667.52
2019-05-01T07:13:18.064Z,99664.94
2019-05-01T07:16:23.491Z,99665.82
2019-05-01T07:19:47.484Z,99664.38
2019-05-01T07:22:53.211Z,99662.11
2019-05-01T07:25:58.627Z,99666.23
2019-05-01T07:29:09.887Z,99656.67
2019-05-01T07:32:15.122Z,99661.14
2019-05-01T07:35:20.737Z,99651.23
2019-05-01T07:38:25.973Z,99645.85
2019-05-01T07:41:33.999Z,99641.61
2019-05-01T07:44:43.592Z,99643.05
2019-05-01T07:47:49.456Z,99644.50
2019-05-01T07:50:54.746Z,99640.49
2019-05-01T07:54:04.007Z,99643.22
2019-05-01T07:57:07.457Z,99631.12
2019-05-01T08:00:23.964Z,99639.84
2019-05-01T08:03:29.102Z,99637.76
2019-05-01T08:06:34.376Z,99641.13
2019-05-01T08:09:39.530Z,99634.27
2019-05-01T08:12:45.203Z,99631.30
2019-05-01T08:15:50.544Z,99626.89
2019-05-01T08:19:04.003Z,99622.56
2019-05-01T08:22:15.589Z,99624.92
2019-05-01T08:25:20.765Z,99618.48
2019-05-01T08:28:42.905Z,99619.84
2019-05-01T08:32:12.837Z,99619.08
2019-05-01T08:35:20.181Z,99617.16
2019-05-01T08:38:25.417Z,99619.52
2019-05-01T08:41:32.008Z,99618.13
2019-05-01T08:44:50.074Z,99608.44
2019-05-01T08:48:12.388Z,99618.14
2019-05-01T08:51:17.674Z,99609.80
2019-05-01T08:54:22.901Z,99608.72
2019-05-01T08:57:29.170Z,99594.25
2019-05-01T09:00:36.415Z,99594.25
2019-05-01T09:03:41.927Z,99597.63
2019-05-01T09:06:47.079Z,99595.36
2019-05-01T09:09:52.199Z,99582.87
2019-05-01T09:12:57.354Z,99588.08
2019-05-01T09:16:02.506Z,99594.55
2019-05-01T09:19:07.621Z,99593.00
2019-05-01T09:22:12.802Z,99595.59
2019-05-01T09:25:21.450Z,99589.95
2019-05-01T09:28:31.036Z,99591.69
2019-05-01T09:31:36.747Z,99587.83
2019-05-01T09:34:41.900Z,99579.00
2019-05-01T09:37:47.206Z,99580.28
2019-05-01T09:40:52.450Z,99581.09
2019-05-01T09:43:58.718Z,99585.98
2019-05-01T09:47:05.558Z,99584.48
2019-05-01T09:50:10.988Z,99577.23
2019-05-01T09:53:34.318Z,99592.88
2019-05-01T09:56:38.917Z,99589.31
2019-05-01T09:59:44.573Z,99586.61
2019-05-01T10:02:49.750Z,99585.48
2019-05-01T10:05:54.941Z,99585.48
2019-05-01T10:09:00.147Z,99594.38
2019-05-01T10:12:05.298Z,99596.00
2019-05-01T10:15:10.469Z,99594.39
2019-05-01T10:18:15.734Z,99588.69
2019-05-01T10:21:27.316Z,99586.29
2019-05-01T10:24:32.229Z,99584.91
2019-05-01T10:27:40.954Z,99579.78
2019-05-01T10:30:59.459Z,99586.86
2019-05-01T10:34:14.044Z,99581.69
2019-05-01T10:37:19.273Z,99579.77
2019-05-01T10:40:27.050Z,99575.09
2019-05-01T10:43:31.436Z,99568.45
2019-05-01T10:46:36.576Z,99571.70
2019-05-01T10:49:41.760Z,99567.97
2019-05-01T10:52:46.969Z,99568.20
2019-05-01T10:55:52.219Z,99568.70
2019-05-01T10:58:57.385Z,99555.64
2019-05-01T11:02:04.398Z,99554.13
2019-05-01T11:05:09.701Z,99554.62
2019-05-01T11:08:14.999Z,99552.22
2019-05-01T11:11:20.158Z,99543.14
2019-05-01T11:14:25.381Z,99552.00
2019-05-01T11:17:30.612Z,99548.27
2019-05-01T11:20:35.948Z,99547.55
2019-05-01T11:23:41.658Z,99546.19
2019-05-01T11:26:52.925Z,99539.95
2019-05-01T11:29:58.239Z,99534.19
2019-05-01T11:33:26.814Z,99533.53
2019-05-01T11:36:52.448Z,99521.69
2019-05-01T11:40:05.144Z,99525.70
2019-05-01T11:43:10.263Z,99519.11
2019-05-01T11:46:15.409Z,99513.66
2019-05-01T11:49:21.655Z,99523.52
2019-05-01T11:52:26.836Z,99516.92
2019-05-01T11:55:32.086Z,99507.95
2019-05-01T11:58:37.293Z,99505.75
2019-05-01T12:01:42.487Z,99507.78
2019-05-01T12:04:47.714Z,99503.97
2019-05-01T12:07:52.883Z,99501.97
2019-05-01T12:10:58.804Z,99497.86
2019-05-01T12:14:04.004Z,99498.09
2019-05-01T12:17:26.549Z,99494.02
2019-05-01T12:20:31.874Z,99486.94
2019-05-01T12:23:37.089Z,99488.11
2019-05-01T12:26:42.347Z,99492.92
2019-05-01T12:29:47.549Z,99491.14
2019-05-01T12:32:52.679Z,99481.89
2019-05-01T12:35:59.553Z,99476.31
2019-05-01T12:39:08.863Z,99477.52
2019-05-01T12:42:16.544Z,99471.81
2019-05-01T12:45:23.187Z,99477.34
2019-05-01T12:48:28.368Z,99467.80
2019-05-01T12:51:34.191Z,99458.63
2019-05-01T12:54:58.079Z,99455.05
2019-05-01T12:58:03.138Z,99450.34
2019-05-01T13:01:08.331Z,99449.31
2019-05-01T13:04:13.519Z,99443.66
2019-05-01T13:07:19.027Z,99443.22
2019-05-01T13:10:24.160Z,99439.94
2019-05-01T13:13:29.368Z,99438.56
2019-05-01T13:16:34.535Z,99436.67
2019-05-01T13:19:39.716Z,99437.19
2019-05-01T13:22:45.002Z,99430.94
2019-05-01T13:25:51.280Z,99422.63
2019-05-01T13:29:21.270Z,99422.02
2019-05-01T13:32:43.777Z,99414.51
2019-05-01T13:35:48.936Z,99418.53
2019-05-01T13:38:54.093Z,99412.02
2019-05-01T13:41:59.331Z,99407.00
2019-05-01T13:45:05.064Z,99407.59
2019-05-01T13:48:10.386Z,99407.78
2019-05-01T13:51:15.584Z,99408.81
2019-05-01T13:54:20.784Z,99397.78
2019-05-01T13:57:26.035Z,99394.39
2019-05-01T14:00:31.223Z,99394.36
2019-05-01T14:03:36.534Z,99393.60
2019-05-01T14:06:42.731Z,99393.06
2019-05-01T14:09:48.106Z,99380.67
2019-05-01T14:12:53.401Z,99387.06
2019-05-01T14:15:58.568Z,99385.02
2019-05-01T14:19:04.015Z,99376.62
2019-05-01T14:22:34.118Z,99372.85
2019-05-01T14:25:56.885Z,99373.95
2019-05-01T14:29:02.123Z,99368.73
2019-05-01T14:32:07.345Z,99376.22
2019-05-01T14:35:13.079Z,99362.55
2019-05-01T14:38:18.221Z,99364.28
2019-05-01T14:41:23.420Z,99353.91
2019-05-01T14:44:36.547Z,99360.52
2019-05-01T14:47:35.475Z,99357.62
2019-05-01T14:50:43.758Z,99360.59
2019-05-01T14:53:49.003Z,99358.70
2019-05-01T14:56:54.231Z,99356.61
2019-05-01T14:59:59.333Z,99360.09
2019-05-01T15:03:04.714Z,99356.43
2019-05-01T15:06:09.920Z,99359.45
2019-05-01T15:09:15.145Z,99349.47
2019-05-01T15:12:20.346Z,99349.64
2019-05-01T15:15:59.684Z,99344.58
2019-05-01T15:19:08.585Z,99341.50
2019-05-01T15:22:13.705Z,99341.90
2019-05-01T15:25:18.905Z,99333.97
2019-05-01T15:28:24.144Z,99335.97
2019-05-01T15:31:29.341Z,99326.49
2019-05-01T15:34:34.442Z,99329.36
2019-05-01T15:37:39.764Z,99326.70
2019-05-01T15:40:55.734Z,99327.34
2019-05-01T15:44:20.746Z,99326.16
2019-05-01T15:47:26.000Z,99319.38
2019-05-01T15:50:31.251Z,99319.19
2019-05-01T15:53:36.564Z,99314.98
2019-05-01T15:56:41.663Z,99314.53
2019-05-01T15:59:46.920Z,99316.44
2019-05-01T16:02:52.154Z,99305.88
2019-05-01T16:05:57.269Z,99316.30
2019-05-01T16:09:02.390Z,99307.23
2019-05-01T16:12:22.584Z,99307.45
2019-05-01T16:15:35.098Z,99301.08
2019-05-01T16:18:40.337Z,99298.13
2019-05-01T16:21:45.572Z,99300.44
2019-05-01T16:24:50.711Z,99299.01
2019-05-01T16:27:55.951Z,99296.92
2019-05-01T16:31:01.133Z,99294.00
2019-05-01T16:34:06.430Z,99305.09
2019-05-01T16:37:11.582Z,99294.59
2019-05-01T16:40:34.321Z,99290.27
2019-05-01T16:43:39.596Z,99285.48
2019-05-01T16:46:44.808Z,99286.88
2019-05-01T16:49:49.970Z,99280.23
2019-05-01T16:52:55.353Z,99280.02
2019-05-01T16:56:00.616Z,99275.97
2019-05-01T16:59:05.839Z,99267.05
2019-05-01T17:02:30.206Z,99267.02
2019-05-01T17:05:56.772Z,99265.17
2019-05-01T17:09:26.221Z,99261.39
2019-05-01T17:12:35.423Z,99260.63
2019-05-01T17:15:45.895Z,99256.26
2019-05-01T17:18:51.191Z,99253.27
2019-05-01T17:21:56.365Z,99258.98
2019-05-01T17:25:01.612Z,99253.28
2019-05-01T17:28:08.561Z,99254.87
2019-05-01T17:31:13.667Z,99255.38
2019-05-01T17:34:18.848Z,99255.34
2019-05-01T17:37:24.070Z,99251.25
2019-05-01T17:40:29.339Z,99251.23
2019-05-01T17:43:34.565Z,99252.02
2019-05-01T17:46:41.982Z,99254.19
2019-05-01T17:49:46.738Z,99253.34
2019-05-01T17:52:51.982Z,99252.81
2019-05-01T17:55:57.255Z,99253.31
2019-05-01T17:59:02.466Z,99248.42
2019-05-01T18:02:26.751Z,99250.74
2019-05-01T18:05:50.854Z,99250.99
2019-05-01T18:09:02.785Z,99249.41
2019-05-01T18:12:03.074Z,99250.74
2019-05-01T18:15:08.318Z,99259.59
2019-05-01T18:18:15.074Z,99252.73
2019-05-01T18:21:20.469Z,99255.15
2019-05-01T18:24:47.402Z,99250.43
2019-05-01T18:28:07.254Z,99254.45
2019-05-01T18:31:17.615Z,99252.78
2019-05-01T18:34:22.989Z,99248.02
2019-05-01T18:37:35.136Z,99258.51
2019-05-01T18:40:43.731Z,99258.61
2019-05-01T18:43:48.941Z,99258.55
2019-05-01T18:46:54.394Z,99258.35
2019-05-01T18:49:59.608Z,99261.46
2019-05-01T18:53:06.771Z,99256.13
2019-05-01T18:56:11.705Z,99253.28
2019-05-01T18:59:16.843Z,99262.09
2019-05-01T19:02:24.960Z,99257.78
2019-05-01T19:05:28.974Z,99258.34
2019-05-01T19:08:34.257Z,99254.77
2019-05-01T19:11:39.507Z,99261.58
2019-05-01T19:14:44.729Z,99259.14
2019-05-01T19:17:49.987Z,99256.96
2019-05-01T19:20:59.778Z,99260.59
2019-05-01T19:24:02.781Z,99261.17
2019-05-01T19:27:09.175Z,99263.27
2019-05-01T19:30:16.827Z,99267.34
2019-05-01T19:33:22.341Z,99265.52
2019-05-01T19:36:27.555Z,99261.05
2019-05-01T19:39:42.938Z,99265.94
2019-05-01T19:42:40.311Z,99265.69
2019-05-01T19:45:45.763Z,99259.08
2019-05-01T19:48:52.636Z,99259.61
2019-05-01T19:52:00.656Z,99257.68
2019-05-01T19:55:06.374Z,99261.53
2019-05-01T19:58:12.752Z,99258.72
2019-05-01T20:01:18.213Z,99264.89
2019-05-01T20:04:23.626Z,99262.48
2019-05-01T20:07:30.656Z,99260.48
2019-05-01T20:10:35.942Z,99262.36
2019-05-01T20:13:41.461Z,99257.96
2019-05-01T20:16:46.925Z,99258.03
2019-05-01T20:19:52.211Z,99253.82
2019-05-01T20:22:57.516Z,99252.98
2019-05-01T20:26:02.810Z,99257.39
2019-05-01T20:29:08.117Z,99260.97
2019-05-01T20:32:13.311Z,99257.48
2019-05-01T20:35:18.528Z,99250.72
2019-05-01T20:38:23.712Z,99246.82
2019-05-01T20:41:28.873Z,99249.56
2019-05-01T20:44:34.151Z,99251.72
2019-05-01T20:47:45.130Z,99250.55
2019-05-01T20:50:46.180Z,99248.03
2019-05-01T20:53:51.356Z,99250.44
2019-05-01T20:57:13.513Z,99247.57
2019-05-01T21:00:20.883Z,99245.50
2019-05-01T21:03:26.275Z,99248.80
2019-05-01T21:06:34.374Z,99248.51
2019-05-01T21:09:47.805Z,99244.09
2019-05-01T21:12:48.754Z,99243.11
2019-05-01T21:15:56.237Z,99241.04
2019-05-01T21:19:00.925Z,99242.52
2019-05-01T21:22:06.132Z,99240.28
2019-05-01T21:25:11.379Z,99237.60
2019-05-01T21:28:16.522Z,99242.30
2019-05-01T21:31:23.896Z,99237.58
2019-05-01T21:34:28.519Z,99240.43
2019-05-01T21:37:33.661Z,99231.91
2019-05-01T21:40:41.139Z,99230.28
2019-05-01T21:43:45.773Z,99224.36
2019-05-01T21:46:50.936Z,99224.13
2019-05-01T21:49:56.142Z,99227.88
2019-05-01T21:53:03.213Z,99228.17
2019-05-01T21:56:08.259Z,99223.09
2019-05-01T21:59:15.074Z,99225.02
2019-05-01T22:02:20.343Z,99222.25
2019-05-01T22:05:25.491Z,99216.44
2019-05-01T22:08:34.514Z,99217.09
2019-05-01T22:11:38.877Z,99213.18
2019-05-01T22:14:49.806Z,99219.90
2019-05-01T22:18:06.664Z,99214.27
2019-05-01T22:21:18.096Z,99212.68
2019-05-01T22:24:45.244Z,99221.46
2019-05-01T22:27:59.243Z,99214.95
2019-05-01T22:31:26.147Z,99210.74
2019-05-01T22:34:44.985Z,99207.39
2019-05-01T22:37:50.279Z,99207.86
2019-05-01T22:41:06.675Z,99205.67
2019-05-01T22:44:07.427Z,99204.50
2019-05-01T22:47:14.991Z,99203.55
2019-05-01T22:50:20.489Z,99198.44
2019-05-01T22:53:25.676Z,99201.28
2019-05-01T22:56:30.892Z,99200.57
2019-05-01T22:59:36.103Z,99200.03
2019-05-01T23:02:41.992Z,99195.42
2019-05-01T23:05:47.077Z,99200.57
2019-05-01T23:08:52.337Z,99204.17
2019-05-01T23:11:57.575Z,99199.48
2019-05-01T23:15:05.182Z,99188.75
2019-05-01T23:18:15.585Z,99188.88
2019-05-01T23:21:18.309Z,99191.86
2019-05-01T23:24:23.594Z,99194.02
2019-05-01T23:27:29.216Z,99187.73
2019-05-01T23:30:35.614Z,99187.97
2019-05-01T23:33:40.759Z,99187.97
2019-05-01T23:36:45.916Z,99181.20
2019-05-01T23:39:51.136Z,99174.42
2019-05-01T23:42:56.354Z,99172.47
2019-05-01T23:46:01.503Z,99170.86
2019-05-01T23:49:06.705Z,99165.72
2019-05-01T23:52:11.902Z,99166.73
2019-05-01T23:55:17.064Z,99165.73
2019-05-01T23:58:22.265Z,99161.12
